Time,TemperatureF,DewpointF,PressureIn,WindDirection,WindDirectionDegrees,WindSpeedMPH,WindSpeedGustMPH,Humidity,HourlyPrecipIn,Conditions,Clouds,dailyrainin,SolarRadiationWatts/m^2,SoftwareType,DateUTC
2013-01-25 00:21:00,59.0,59.0,30.10,North,1,4.0,12.0,100,0.00,,,0.45,0.000000,,2013-01-25 08:21:00,
2013-01-25 00:32:00,59.0,59.0,30.10,North,1,4.0,12.0,100,0.00,,,0.45,0.000000,,2013-01-25 08:32:00,
2013-01-25 00:41:00,59.0,59.0,30.10,North,1,4.0,12.0,100,0.00,,,0.45,0.000000,,2013-01-25 08:41:00,
2013-01-25 00:52:00,59.0,59.0,30.10,North,1,4.0,12.0,100,0.00,,,0.45,0.000000,,2013-01-25 08:52:00,
2013-01-25 01:21:00,60.0,59.0,30.07,NNE,12,4.0,11.0,98,0.01,,,0.45,0.000000,,2013-01-25 09:21:00,
2013-01-25 01:31:00,60.0,59.0,30.07,NNE,12,4.0,11.0,98,0.01,,,0.45,0.000000,,2013-01-25 09:31:00,
2013-01-25 01:41:00,60.0,59.0,30.07,NNE,12,4.0,11.0,98,0.01,,,0.45,0.000000,,2013-01-25 09:41:00,
2013-01-25 01:51:00,60.0,59.0,30.07,NNE,12,4.0,11.0,98,0.01,,,0.45,0.000000,,2013-01-25 09:51:00,
2013-01-25 02:21:00,60.0,58.0,30.07,ESE,120,1.0,12.0,93,0.00,,,0.41,0.000000,,2013-01-25 10:21:00,
2013-01-25 02:31:00,60.0,58.0,30.07,ESE,120,1.0,12.0,93,0.00,,,0.41,0.000000,,2013-01-25 10:31:00,
2013-01-25 02:41:00,60.0,58.0,30.07,ESE,120,1.0,12.0,93,0.00,,,0.41,0.000000,,2013-01-25 10:41:00,
2013-01-25 02:51:00,60.0,58.0,30.07,ESE,120,1.0,12.0,93,0.00,,,0.41,0.000000,,2013-01-25 10:51:00,
2013-01-25 03:22:00,61.0,60.0,30.05,WNW,292,3.0,11.0,95,0.00,,,0.36,0.000000,,2013-01-25 11:22:00,
2013-01-25 03:32:00,61.0,60.0,30.05,WNW,292,3.0,11.0,95,0.00,,,0.36,0.000000,,2013-01-25 11:32:00,
2013-01-25 03:42:00,61.0,60.0,30.05,WNW,292,3.0,11.0,95,0.00,,,0.36,0.000000,,2013-01-25 11:42:00,
2013-01-25 03:52:00,61.0,60.0,30.05,WNW,292,3.0,11.0,95,0.00,,,0.36,0.000000,,2013-01-25 11:52:00,
2013-01-25 04:22:00,61.0,55.0,30.02,NNW,334,5.0,6.0,81,0.00,,,0.32,0.000000,,2013-01-25 12:22:00,
2013-01-25 04:32:00,61.0,55.0,30.02,NNW,334,5.0,6.0,81,0.00,,,0.32,0.000000,,2013-01-25 12:32:00,
2013-01-25 04:42:00,61.0,55.0,30.02,NNW,334,5.0,6.0,81,0.00,,,0.32,0.000000,,2013-01-25 12:42:00,
2013-01-25 04:52:00,61.0,55.0,30.02,NNW,334,5.0,6.0,81,0.00,,,0.32,0.000000,,2013-01-25 12:52:00,
2013-01-25 05:22:00,61.0,55.0,30.02,North,11,4.0,11.0,82,0.00,,,0.27,0.000000,,2013-01-25 13:22:00,
2013-01-25 05:32:00,61.0,55.0,30.02,North,11,4.0,11.0,82,0.00,,,0.27,0.000000,,2013-01-25 13:32:00,
2013-01-25 05:42:00,61.0,55.0,30.02,North,11,4.0,11.0,82,0.00,,,0.27,0.000000,,2013-01-25 13:42:00,
2013-01-25 05:52:00,61.0,55.0,30.02,North,11,4.0,11.0,82,0.00,,,0.27,0.000000,,2013-01-25 13:52:00,
2013-01-25 06:22:00,59.0,54.0,30.03,South,182,2.0,14.0,84,0.01,,,0.24,0.000000,,2013-01-25 14:22:00,
2013-01-25 06:32:00,59.0,54.0,30.03,South,182,2.0,14.0,84,0.01,,,0.24,0.000000,,2013-01-25 14:32:00,
2013-01-25 06:42:00,59.0,54.0,30.03,South,182,2.0,14.0,84,0.01,,,0.24,0.000000,,2013-01-25 14:42:00,
2013-01-25 06:52:00,59.0,54.0,30.03,South,182,2.0,14.0,84,0.01,,,0.24,0.000000,,2013-01-25 14:52:00,
2013-01-25 07:22:00,61.0,55.0,30.03,SW,234,4.0,11.0,80,0.00,,,0.09,0.000000,,2013-01-25 15:22:00,
2013-01-25 07:32:00,61.0,55.0,30.03,SW,234,4.0,11.0,80,0.00,,,0.09,0.000000,,2013-01-25 15:32:00,
2013-01-25 07:42:00,61.0,55.0,30.03,SW,234,4.0,11.0,80,0.00,,,0.09,0.000000,,2013-01-25 15:42:00,
2013-01-25 07:52:00,61.0,55.0,30.03,SW,234,4.0,11.0,80,0.00,,,0.09,0.000000,,2013-01-25 15:52:00,
2013-01-25 08:22:00,60.0,51.0,30.04,North,2,5.0,14.0,73,0.00,,,0.07,12.000000,,2013-01-25 16:22:00,
2013-01-25 08:32:00,60.0,51.0,30.04,North,2,5.0,14.0,73,0.00,,,0.07,12.000000,,2013-01-25 16:32:00,
2013-01-25 08:42:00,60.0,51.0,30.04,North,2,5.0,14.0,73,0.00,,,0.07,12.000000,,2013-01-25 16:42:00,
2013-01-25 08:52:00,60.0,51.0,30.04,North,2,5.0,14.0,73,0.00,,,0.07,12.000000,,2013-01-25 16:52:00,
2013-01-25 09:22:00,62.0,52.0,30.06,NE,50,7.0,16.0,69,0.00,,,0.06,32.000000,,2013-01-25 17:22:00,
2013-01-25 09:32:00,62.0,52.0,30.06,NE,50,7.0,16.0,69,0.00,,,0.06,32.000000,,2013-01-25 17:32:00,
2013-01-25 09:42:00,62.0,52.0,30.06,NE,50,7.0,16.0,69,0.00,,,0.06,32.000000,,2013-01-25 17:42:00,
2013-01-25 09:52:00,62.0,52.0,30.06,NE,50,7.0,16.0,69,0.00,,,0.06,32.000000,,2013-01-25 17:52:00,
2013-01-25 10:23:00,61.0,58.0,30.07,ENE,57,8.0,16.0,90,0.01,,,0.07,46.000000,,2013-01-25 18:23:00,
2013-01-25 10:32:00,61.0,58.0,30.07,ENE,57,8.0,16.0,90,0.01,,,0.07,46.000000,,2013-01-25 18:32:00,
2013-01-25 10:42:00,61.0,58.0,30.07,ENE,57,8.0,16.0,90,0.01,,,0.07,46.000000,,2013-01-25 18:42:00,
2013-01-25 10:51:00,61.0,58.0,30.07,ENE,57,8.0,16.0,90,0.01,,,0.07,46.000000,,2013-01-25 18:51:00,
2013-01-25 11:22:00,60.0,60.0,30.08,NE,44,7.0,18.0,100,0.03,,,0.10,36.000000,,2013-01-25 19:22:00,
2013-01-25 11:32:00,60.0,60.0,30.08,NE,44,7.0,18.0,100,0.03,,,0.10,36.000000,,2013-01-25 19:32:00,
2013-01-25 11:42:00,60.0,60.0,30.08,NE,44,7.0,18.0,100,0.03,,,0.10,36.000000,,2013-01-25 19:42:00,
2013-01-25 11:52:00,60.0,60.0,30.08,NE,44,7.0,18.0,100,0.03,,,0.10,36.000000,,2013-01-25 19:52:00,
2013-01-25 12:22:00,59.0,59.0,30.04,NE,52,5.0,17.0,100,0.01,,,0.11,44.000000,,2013-01-25 20:22:00,
2013-01-25 12:32:00,59.0,59.0,30.04,NE,52,5.0,17.0,100,0.01,,,0.11,44.000000,,2013-01-25 20:32:00,
2013-01-25 12:42:00,59.0,59.0,30.04,NE,52,5.0,17.0,100,0.01,,,0.11,44.000000,,2013-01-25 20:42:00,
2013-01-25 12:52:00,59.0,59.0,30.04,NE,52,5.0,17.0,100,0.01,,,0.11,44.000000,,2013-01-25 20:52:00,
2013-01-25 13:22:00,63.0,61.0,29.99,ENE,64,7.0,15.0,94,0.00,,,0.11,135.000000,,2013-01-25 21:22:00,
2013-01-25 13:32:00,63.0,61.0,29.99,ENE,64,7.0,15.0,94,0.00,,,0.11,135.000000,,2013-01-25 21:32:00,
2013-01-25 13:42:00,63.0,61.0,29.99,ENE,64,7.0,15.0,94,0.00,,,0.11,135.000000,,2013-01-25 21:42:00,
2013-01-25 13:52:00,63.0,61.0,29.99,ENE,64,7.0,15.0,94,0.00,,,0.11,135.000000,,2013-01-25 21:52:00,
2013-01-25 14:22:00,65.0,61.0,29.99,NNE,30,7.0,15.0,86,0.00,,,0.11,219.000000,,2013-01-25 22:22:00,
2013-01-25 14:32:00,65.0,61.0,29.99,NNE,30,7.0,15.0,86,0.00,,,0.11,219.000000,,2013-01-25 22:32:00,
2013-01-25 14:42:00,65.0,61.0,29.99,NNE,30,7.0,15.0,86,0.00,,,0.11,219.000000,,2013-01-25 22:42:00,
2013-01-25 14:51:00,65.0,61.0,29.99,NNE,30,7.0,15.0,86,0.00,,,0.11,219.000000,,2013-01-25 22:51:00,
2013-01-25 15:22:00,62.0,59.0,29.98,North,359,6.0,19.0,90,0.00,,,0.11,73.000000,,2013-01-25 23:22:00,
2013-01-25 15:32:00,62.0,59.0,29.98,North,359,6.0,19.0,90,0.00,,,0.11,73.000000,,2013-01-25 23:32:00,
2013-01-25 15:42:00,62.0,59.0,29.98,North,359,6.0,19.0,90,0.00,,,0.11,73.000000,,2013-01-25 23:42:00,
2013-01-25 15:52:00,62.0,59.0,29.98,North,359,6.0,19.0,90,0.00,,,0.11,73.000000,,2013-01-25 23:52:00,
2013-01-25 16:22:00,61.0,61.0,29.96,NW,307,3.0,16.0,100,0.03,,,0.14,40.000000,,2013-01-26 00:22:00,
2013-01-25 16:32:00,61.0,61.0,29.96,NW,307,3.0,16.0,100,0.03,,,0.14,40.000000,,2013-01-26 00:32:00,
2013-01-25 16:41:00,61.0,61.0,29.96,NW,307,3.0,16.0,100,0.03,,,0.14,40.000000,,2013-01-26 00:41:00,
2013-01-25 16:52:00,61.0,61.0,29.96,NW,307,3.0,16.0,100,0.03,,,0.14,40.000000,,2013-01-26 00:52:00,
2013-01-25 17:22:00,60.0,60.0,29.95,North,5,5.0,11.0,100,0.00,,,0.14,49.000000,,2013-01-26 01:22:00,
2013-01-25 17:31:00,60.0,60.0,29.95,North,5,5.0,11.0,100,0.00,,,0.14,49.000000,,2013-01-26 01:31:00,
2013-01-25 17:42:00,60.0,60.0,29.95,North,5,5.0,11.0,100,0.00,,,0.14,49.000000,,2013-01-26 01:42:00,
2013-01-25 17:52:00,60.0,60.0,29.95,North,5,5.0,11.0,100,0.00,,,0.14,49.000000,,2013-01-26 01:52:00,
2013-01-25 18:22:00,60.0,60.0,29.96,SSE,151,2.0,10.0,100,0.00,,,0.14,7.000000,,2013-01-26 02:22:00,
2013-01-25 18:32:00,60.0,60.0,29.96,SSE,151,2.0,10.0,100,0.00,,,0.14,7.000000,,2013-01-26 02:32:00,
2013-01-25 18:42:00,60.0,60.0,29.96,SSE,151,2.0,10.0,100,0.00,,,0.14,7.000000,,2013-01-26 02:42:00,
2013-01-25 18:52:00,60.0,60.0,29.96,SSE,151,2.0,10.0,100,0.00,,,0.14,7.000000,,2013-01-26 02:52:00,
2013-01-25 19:21:00,60.0,59.0,29.96,NNE,17,3.0,6.0,97,0.01,,,0.15,0.000000,,2013-01-26 03:21:00,
2013-01-25 19:31:00,60.0,59.0,29.96,NNE,17,3.0,6.0,97,0.01,,,0.15,0.000000,,2013-01-26 03:31:00,
2013-01-25 19:42:00,60.0,59.0,29.96,NNE,17,3.0,6.0,97,0.01,,,0.15,0.000000,,2013-01-26 03:42:00,
2013-01-25 19:51:00,60.0,59.0,29.96,NNE,17,3.0,6.0,97,0.01,,,0.15,0.000000,,2013-01-26 03:51:00,
2013-01-25 20:21:00,61.0,57.0,29.94,NW,318,3.0,11.0,88,0.00,,,0.15,0.000000,,2013-01-26 04:21:00,
2013-01-25 20:32:00,61.0,57.0,29.94,NW,318,3.0,11.0,88,0.00,,,0.15,0.000000,,2013-01-26 04:32:00,
2013-01-25 20:42:00,61.0,57.0,29.94,NW,318,3.0,11.0,88,0.00,,,0.15,0.000000,,2013-01-26 04:42:00,
2013-01-25 20:52:00,61.0,57.0,29.94,NW,318,3.0,11.0,88,0.00,,,0.15,0.000000,,2013-01-26 04:52:00,
2013-01-25 21:23:00,60.0,59.0,29.95,North,2,5.0,10.0,95,0.00,,,0.14,0.000000,,2013-01-26 05:23:00,
2013-01-25 21:33:00,60.0,59.0,29.95,North,2,5.0,10.0,95,0.00,,,0.14,0.000000,,2013-01-26 05:33:00,
2013-01-25 21:41:00,60.0,59.0,29.95,North,2,5.0,10.0,95,0.00,,,0.14,0.000000,,2013-01-26 05:41:00,
2013-01-25 21:52:00,60.0,59.0,29.95,North,2,5.0,10.0,95,0.00,,,0.14,0.000000,,2013-01-26 05:52:00,
2013-01-25 22:21:00,59.0,59.0,29.94,North,0,3.0,9.0,100,0.02,,,0.13,0.000000,,2013-01-26 06:21:00,
2013-01-25 22:31:00,59.0,59.0,29.94,North,0,3.0,9.0,100,0.02,,,0.13,0.000000,,2013-01-26 06:31:00,
2013-01-25 22:41:00,59.0,59.0,29.94,North,0,3.0,9.0,100,0.02,,,0.13,0.000000,,2013-01-26 06:41:00,
2013-01-25 22:51:00,59.0,59.0,29.94,North,0,3.0,9.0,100,0.02,,,0.13,0.000000,,2013-01-26 06:51:00,
2013-01-25 23:21:00,57.0,57.0,29.94,North,10,6.0,8.0,100,0.03,,,0.16,0.000000,,2013-01-26 07:21:00,
2013-01-25 23:33:00,57.0,57.0,29.94,North,10,6.0,8.0,100,0.03,,,0.16,0.000000,,2013-01-26 07:33:00,
2013-01-25 23:41:00,57.0,57.0,29.94,North,10,6.0,8.0,100,0.03,,,0.16,0.000000,,2013-01-26 07:41:00,
2013-01-25 23:51:00,57.0,57.0,29.94,North,10,6.0,8.0,100,0.03,,,0.16,0.000000,,2013-01-26 07:51:00,